sensor_id;sensor_type;location;lat;lon;timestamp;P1;durP1;ratioP1;P2;durP2;ratioP2
22172;SDS011;11252;50.596;17.648;2022-12-04T00:00:33;134.63;;;65.97;;
22172;SDS011;11252;50.596;17.648;2022-12-04T00:03:00;128.53;;;61.27;;
22172;SDS011;11252;50.596;17.648;2022-12-04T00:05:28;133.50;;;61.70;;
22172;SDS011;11252;50.596;17.648;2022-12-04T00:07:56;123.00;;;59.23;;
22172;SDS011;11252;50.596;17.648;2022-12-04T00:10:23;136.10;;;66.70;;
22172;SDS011;11252;50.596;17.648;2022-12-04T00:12:50;137.00;;;66.50;;
22172;SDS011;11252;50.596;17.648;2022-12-04T00:15:18;138.10;;;67.83;;
22172;SDS011;11252;50.596;17.648;2022-12-04T00:17:53;136.57;;;65.33;;
22172;SDS011;11252;50.596;17.648;2022-12-04T00:20:20;116.87;;;57.73;;
22172;SDS011;11252;50.596;17.648;2022-12-04T00:22:49;160.43;;;75.63;;
22172;SDS011;11252;50.596;17.648;2022-12-04T00:25:16;134.97;;;64.00;;
22172;SDS011;11252;50.596;17.648;2022-12-04T00:27:43;156.37;;;74.23;;
22172;SDS011;11252;50.596;17.648;2022-12-04T00:30:11;167.97;;;76.73;;
22172;SDS011;11252;50.596;17.648;2022-12-04T00:32:39;142.83;;;67.90;;
22172;SDS011;11252;50.596;17.648;2022-12-04T00:35:06;135.63;;;67.23;;
22172;SDS011;11252;50.596;17.648;2022-12-04T00:37:36;164.03;;;81.47;;
22172;SDS011;11252;50.596;17.648;2022-12-04T00:40:03;142.20;;;73.50;;
22172;SDS011;11252;50.596;17.648;2022-12-04T00:42:31;152.20;;;77.70;;
22172;SDS011;11252;50.596;17.648;2022-12-04T00:44:59;130.30;;;69.10;;
22172;SDS011;11252;50.596;17.648;2022-12-04T00:47:26;157.87;;;77.07;;
22172;SDS011;11252;50.596;17.648;2022-12-04T00:49:53;164.67;;;79.70;;
22172;SDS011;11252;50.596;17.648;2022-12-04T00:52:22;209.17;;;110.53;;
22172;SDS011;11252;50.596;17.648;2022-12-04T00:54:50;190.97;;;87.83;;
22172;SDS011;11252;50.596;17.648;2022-12-04T00:57:18;168.30;;;80.00;;
22172;SDS011;11252;50.596;17.648;2022-12-04T00:59:45;164.23;;;84.90;;
22172;SDS011;11252;50.596;17.648;2022-12-04T01:02:13;162.17;;;76.57;;
22172;SDS011;11252;50.596;17.648;2022-12-04T01:04:40;190.87;;;89.77;;
22172;SDS011;11252;50.596;17.648;2022-12-04T01:07:07;172.23;;;85.20;;
22172;SDS011;11252;50.596;17.648;2022-12-04T01:09:35;149.77;;;73.50;;
22172;SDS011;11252;50.596;17.648;2022-12-04T01:12:05;163.27;;;80.30;;
22172;SDS011;11252;50.596;17.648;2022-12-04T01:14:32;144.77;;;70.90;;
22172;SDS011;11252;50.596;17.648;2022-12-04T01:17:00;171.00;;;87.30;;
22172;SDS011;11252;50.596;17.648;2022-12-04T01:19:28;178.47;;;89.30;;
22172;SDS011;11252;50.596;17.648;2022-12-04T01:21:56;218.47;;;99.47;;
22172;SDS011;11252;50.596;17.648;2022-12-04T01:24:24;189.10;;;90.27;;
22172;SDS011;11252;50.596;17.648;2022-12-04T01:26:51;176.83;;;82.93;;
22172;SDS011;11252;50.596;17.648;2022-12-04T01:29:19;217.10;;;96.47;;
22172;SDS011;11252;50.596;17.648;2022-12-04T01:31:46;190.93;;;85.47;;
22172;SDS011;11252;50.596;17.648;2022-12-04T01:34:14;192.23;;;86.47;;
22172;SDS011;11252;50.596;17.648;2022-12-04T01:36:41;161.33;;;77.97;;
22172;SDS011;11252;50.596;17.648;2022-12-04T01:39:09;171.80;;;80.37;;
22172;SDS011;11252;50.596;17.648;2022-12-04T01:41:36;184.30;;;88.33;;
22172;SDS011;11252;50.596;17.648;2022-12-04T01:44:07;200.63;;;95.13;;
22172;SDS011;11252;50.596;17.648;2022-12-04T01:46:50;180.20;;;86.20;;
22172;SDS011;11252;50.596;17.648;2022-12-04T01:49:44;183.73;;;92.60;;
22172;SDS011;11252;50.596;17.648;2022-12-04T01:52:22;176.57;;;85.10;;
22172;SDS011;11252;50.596;17.648;2022-12-04T01:54:56;157.73;;;79.93;;
22172;SDS011;11252;50.596;17.648;2022-12-04T01:57:27;159.30;;;82.67;;
22172;SDS011;11252;50.596;17.648;2022-12-04T02:00:03;155.30;;;77.87;;
22172;SDS011;11252;50.596;17.648;2022-12-04T02:02:34;135.80;;;70.50;;
22172;SDS011;11252;50.596;17.648;2022-12-04T02:05:09;168.93;;;84.93;;
22172;SDS011;11252;50.596;17.648;2022-12-04T02:07:39;161.43;;;83.10;;
22172;SDS011;11252;50.596;17.648;2022-12-04T02:10:08;162.70;;;84.33;;
22172;SDS011;11252;50.596;17.648;2022-12-04T02:15:28;142.63;;;71.63;;
22172;SDS011;11252;50.596;17.648;2022-12-04T02:26:28;122.87;;;61.87;;
22172;SDS011;11252;50.596;17.648;2022-12-04T02:31:40;130.23;;;61.97;;
22172;SDS011;11252;50.596;17.648;2022-12-04T02:34:15;114.13;;;57.83;;
22172;SDS011;11252;50.596;17.648;2022-12-04T02:37:04;118.70;;;59.00;;
22172;SDS011;11252;50.596;17.648;2022-12-04T02:39:37;120.97;;;57.57;;
22172;SDS011;11252;50.596;17.648;2022-12-04T02:42:57;110.97;;;57.07;;
22172;SDS011;11252;50.596;17.648;2022-12-04T02:45:11;122.20;;;61.00;;
22172;SDS011;11252;50.596;17.648;2022-12-04T02:47:45;125.80;;;64.90;;
22172;SDS011;11252;50.596;17.648;2022-12-04T02:50:15;130.00;;;66.13;;
22172;SDS011;11252;50.596;17.648;2022-12-04T02:52:49;141.00;;;70.20;;
22172;SDS011;11252;50.596;17.648;2022-12-04T02:55:49;126.90;;;63.43;;
22172;SDS011;11252;50.596;17.648;2022-12-04T02:58:25;140.77;;;67.87;;
22172;SDS011;11252;50.596;17.648;2022-12-04T03:00:58;134.47;;;66.27;;
22172;SDS011;11252;50.596;17.648;2022-12-04T03:03:29;132.07;;;63.13;;
22172;SDS011;11252;50.596;17.648;2022-12-04T03:06:00;110.57;;;58.30;;
22172;SDS011;11252;50.596;17.648;2022-12-04T03:08:34;119.27;;;61.10;;
22172;SDS011;11252;50.596;17.648;2022-12-04T03:11:06;116.10;;;58.40;;
22172;SDS011;11252;50.596;17.648;2022-12-04T03:13:38;113.63;;;57.50;;
22172;SDS011;11252;50.596;17.648;2022-12-04T03:16:22;111.83;;;57.37;;
22172;SDS011;11252;50.596;17.648;2022-12-04T03:19:20;114.43;;;58.77;;
22172;SDS011;11252;50.596;17.648;2022-12-04T03:21:53;119.70;;;60.23;;
22172;SDS011;11252;50.596;17.648;2022-12-04T03:24:26;160.70;;;105.37;;
22172;SDS011;11252;50.596;17.648;2022-12-04T03:27:01;137.37;;;72.23;;
22172;SDS011;11252;50.596;17.648;2022-12-04T03:29:45;148.43;;;83.63;;
22172;SDS011;11252;50.596;17.648;2022-12-04T03:32:18;122.80;;;61.57;;
22172;SDS011;11252;50.596;17.648;2022-12-04T03:34:50;118.67;;;59.87;;
22172;SDS011;11252;50.596;17.648;2022-12-04T03:40:25;110.27;;;58.77;;
22172;SDS011;11252;50.596;17.648;2022-12-04T03:45:50;115.63;;;58.17;;
22172;SDS011;11252;50.596;17.648;2022-12-04T03:51:18;121.53;;;60.90;;
22172;SDS011;11252;50.596;17.648;2022-12-04T03:54:11;112.77;;;59.77;;
22172;SDS011;11252;50.596;17.648;2022-12-04T03:56:47;119.60;;;63.43;;
22172;SDS011;11252;50.596;17.648;2022-12-04T03:59:25;133.70;;;66.03;;
22172;SDS011;11252;50.596;17.648;2022-12-04T04:02:07;134.03;;;67.60;;
22172;SDS011;11252;50.596;17.648;2022-12-04T04:04:41;145.67;;;65.73;;
22172;SDS011;11252;50.596;17.648;2022-12-04T04:07:16;117.73;;;59.00;;
22172;SDS011;11252;50.596;17.648;2022-12-04T04:09:49;118.87;;;58.97;;
22172;SDS011;11252;50.596;17.648;2022-12-04T04:12:24;104.30;;;54.83;;
22172;SDS011;11252;50.596;17.648;2022-12-04T04:14:56;104.80;;;55.13;;
22172;SDS011;11252;50.596;17.648;2022-12-04T04:17:53;108.10;;;55.33;;
22172;SDS011;11252;50.596;17.648;2022-12-04T04:23:30;112.80;;;59.17;;
22172;SDS011;11252;50.596;17.648;2022-12-04T04:26:20;113.27;;;58.60;;
22172;SDS011;11252;50.596;17.648;2022-12-04T04:28:49;111.90;;;56.43;;
22172;SDS011;11252;50.596;17.648;2022-12-04T04:45:12;111.13;;;59.87;;
22172;SDS011;11252;50.596;17.648;2022-12-04T04:47:47;118.10;;;62.80;;
22172;SDS011;11252;50.596;17.648;2022-12-04T04:50:36;112.87;;;60.73;;
22172;SDS011;11252;50.596;17.648;2022-12-04T04:53:07;144.83;;;86.00;;
22172;SDS011;11252;50.596;17.648;2022-12-04T04:55:39;169.57;;;106.80;;
22172;SDS011;11252;50.596;17.648;2022-12-04T04:58:11;139.67;;;82.70;;
22172;SDS011;11252;50.596;17.648;2022-12-04T05:00:43;134.63;;;79.57;;
22172;SDS011;11252;50.596;17.648;2022-12-04T05:03:39;144.13;;;85.20;;
22172;SDS011;11252;50.596;17.648;2022-12-04T05:06:07;121.03;;;64.83;;
22172;SDS011;11252;50.596;17.648;2022-12-04T05:08:35;119.63;;;68.57;;
22172;SDS011;11252;50.596;17.648;2022-12-04T05:11:03;122.13;;;66.47;;
22172;SDS011;11252;50.596;17.648;2022-12-04T05:13:31;140.03;;;79.27;;
22172;SDS011;11252;50.596;17.648;2022-12-04T05:16:04;144.40;;;79.00;;
22172;SDS011;11252;50.596;17.648;2022-12-04T05:18:33;124.70;;;65.67;;
22172;SDS011;11252;50.596;17.648;2022-12-04T05:21:08;120.57;;;65.00;;
22172;SDS011;11252;50.596;17.648;2022-12-04T05:23:44;125.87;;;68.67;;
22172;SDS011;11252;50.596;17.648;2022-12-04T05:26:13;117.50;;;63.93;;
22172;SDS011;11252;50.596;17.648;2022-12-04T05:28:40;120.70;;;63.60;;
22172;SDS011;11252;50.596;17.648;2022-12-04T05:31:08;129.23;;;70.00;;
22172;SDS011;11252;50.596;17.648;2022-12-04T05:33:35;134.83;;;73.10;;
22172;SDS011;11252;50.596;17.648;2022-12-04T05:36:04;138.53;;;75.43;;
22172;SDS011;11252;50.596;17.648;2022-12-04T05:38:33;132.27;;;72.27;;
22172;SDS011;11252;50.596;17.648;2022-12-04T05:41:01;130.47;;;69.17;;
22172;SDS011;11252;50.596;17.648;2022-12-04T05:43:30;133.53;;;70.53;;
22172;SDS011;11252;50.596;17.648;2022-12-04T05:46:02;135.80;;;68.17;;
22172;SDS011;11252;50.596;17.648;2022-12-04T05:48:31;129.13;;;68.73;;
22172;SDS011;11252;50.596;17.648;2022-12-04T05:51:04;133.47;;;70.30;;
22172;SDS011;11252;50.596;17.648;2022-12-04T05:53:32;132.53;;;66.60;;
22172;SDS011;11252;50.596;17.648;2022-12-04T05:56:01;131.23;;;66.43;;
22172;SDS011;11252;50.596;17.648;2022-12-04T05:58:32;142.40;;;70.23;;
22172;SDS011;11252;50.596;17.648;2022-12-04T06:01:12;132.70;;;70.00;;
22172;SDS011;11252;50.596;17.648;2022-12-04T06:03:44;141.87;;;70.10;;
22172;SDS011;11252;50.596;17.648;2022-12-04T06:06:13;171.47;;;85.77;;
22172;SDS011;11252;50.596;17.648;2022-12-04T06:08:47;152.00;;;71.37;;
22172;SDS011;11252;50.596;17.648;2022-12-04T06:11:20;136.23;;;67.80;;
22172;SDS011;11252;50.596;17.648;2022-12-04T06:13:50;152.80;;;68.27;;
22172;SDS011;11252;50.596;17.648;2022-12-04T06:16:19;147.97;;;69.57;;
22172;SDS011;11252;50.596;17.648;2022-12-04T06:18:59;162.20;;;77.43;;
22172;SDS011;11252;50.596;17.648;2022-12-04T06:21:29;146.00;;;71.03;;
22172;SDS011;11252;50.596;17.648;2022-12-04T06:23:58;156.03;;;71.27;;
22172;SDS011;11252;50.596;17.648;2022-12-04T06:26:26;174.47;;;82.70;;
22172;SDS011;11252;50.596;17.648;2022-12-04T06:28:58;173.27;;;82.97;;
22172;SDS011;11252;50.596;17.648;2022-12-04T06:31:26;174.77;;;76.87;;
22172;SDS011;11252;50.596;17.648;2022-12-04T06:33:56;161.53;;;72.53;;
22172;SDS011;11252;50.596;17.648;2022-12-04T06:36:27;161.53;;;70.97;;
22172;SDS011;11252;50.596;17.648;2022-12-04T06:38:55;171.27;;;75.33;;
22172;SDS011;11252;50.596;17.648;2022-12-04T06:41:24;180.53;;;77.57;;
22172;SDS011;11252;50.596;17.648;2022-12-04T06:43:52;174.10;;;76.90;;
22172;SDS011;11252;50.596;17.648;2022-12-04T06:46:21;182.03;;;77.83;;
22172;SDS011;11252;50.596;17.648;2022-12-04T06:48:52;185.17;;;78.53;;
22172;SDS011;11252;50.596;17.648;2022-12-04T06:51:22;198.37;;;90.00;;
22172;SDS011;11252;50.596;17.648;2022-12-04T06:53:54;217.77;;;87.70;;
22172;SDS011;11252;50.596;17.648;2022-12-04T06:56:25;227.23;;;96.73;;
22172;SDS011;11252;50.596;17.648;2022-12-04T06:58:55;208.80;;;88.93;;
22172;SDS011;11252;50.596;17.648;2022-12-04T07:01:26;202.00;;;83.07;;
22172;SDS011;11252;50.596;17.648;2022-12-04T07:03:55;192.67;;;79.40;;
22172;SDS011;11252;50.596;17.648;2022-12-04T07:06:28;199.00;;;84.83;;
22172;SDS011;11252;50.596;17.648;2022-12-04T07:08:59;184.70;;;79.53;;
22172;SDS011;11252;50.596;17.648;2022-12-04T07:11:30;173.00;;;73.63;;
22172;SDS011;11252;50.596;17.648;2022-12-04T07:13:58;203.70;;;87.73;;
22172;SDS011;11252;50.596;17.648;2022-12-04T07:16:26;202.13;;;84.37;;
22172;SDS011;11252;50.596;17.648;2022-12-04T07:18:54;217.17;;;94.57;;
22172;SDS011;11252;50.596;17.648;2022-12-04T07:21:27;213.97;;;87.77;;
22172;SDS011;11252;50.596;17.648;2022-12-04T07:23:56;221.90;;;97.90;;
22172;SDS011;11252;50.596;17.648;2022-12-04T07:26:25;273.87;;;140.27;;
22172;SDS011;11252;50.596;17.648;2022-12-04T07:28:54;217.47;;;106.90;;
22172;SDS011;11252;50.596;17.648;2022-12-04T07:31:23;181.47;;;80.80;;
22172;SDS011;11252;50.596;17.648;2022-12-04T07:33:52;176.17;;;79.43;;
22172;SDS011;11252;50.596;17.648;2022-12-04T07:36:21;160.63;;;70.37;;
22172;SDS011;11252;50.596;17.648;2022-12-04T07:38:50;177.43;;;75.33;;
22172;SDS011;11252;50.596;17.648;2022-12-04T07:41:18;178.47;;;76.37;;
22172;SDS011;11252;50.596;17.648;2022-12-04T07:43:45;154.57;;;67.20;;
22172;SDS011;11252;50.596;17.648;2022-12-04T07:46:14;141.10;;;66.57;;
22172;SDS011;11252;50.596;17.648;2022-12-04T07:48:43;161.57;;;73.50;;
22172;SDS011;11252;50.596;17.648;2022-12-04T07:51:12;138.13;;;63.40;;
22172;SDS011;11252;50.596;17.648;2022-12-04T07:53:41;145.37;;;66.13;;
22172;SDS011;11252;50.596;17.648;2022-12-04T07:56:10;130.97;;;60.73;;
22172;SDS011;11252;50.596;17.648;2022-12-04T07:58:39;128.33;;;59.97;;
22172;SDS011;11252;50.596;17.648;2022-12-04T08:01:11;153.03;;;64.60;;
22172;SDS011;11252;50.596;17.648;2022-12-04T08:03:44;136.67;;;63.70;;
22172;SDS011;11252;50.596;17.648;2022-12-04T08:06:14;125.33;;;59.33;;
22172;SDS011;11252;50.596;17.648;2022-12-04T08:08:43;148.10;;;71.37;;
22172;SDS011;11252;50.596;17.648;2022-12-04T08:11:12;159.93;;;82.13;;
22172;SDS011;11252;50.596;17.648;2022-12-04T08:13:44;154.57;;;75.97;;
22172;SDS011;11252;50.596;17.648;2022-12-04T08:16:12;142.37;;;72.13;;
22172;SDS011;11252;50.596;17.648;2022-12-04T08:18:41;132.80;;;67.20;;
22172;SDS011;11252;50.596;17.648;2022-12-04T08:21:13;153.60;;;79.17;;
22172;SDS011;11252;50.596;17.648;2022-12-04T08:23:43;137.73;;;62.80;;
22172;SDS011;11252;50.596;17.648;2022-12-04T08:26:10;134.20;;;60.80;;
22172;SDS011;11252;50.596;17.648;2022-12-04T08:28:38;116.53;;;53.57;;
22172;SDS011;11252;50.596;17.648;2022-12-04T08:31:17;119.73;;;53.87;;
22172;SDS011;11252;50.596;17.648;2022-12-04T08:33:47;123.67;;;56.07;;
22172;SDS011;11252;50.596;17.648;2022-12-04T08:36:16;130.10;;;56.47;;
22172;SDS011;11252;50.596;17.648;2022-12-04T08:38:45;122.30;;;58.27;;
22172;SDS011;11252;50.596;17.648;2022-12-04T08:41:15;124.83;;;54.00;;
22172;SDS011;11252;50.596;17.648;2022-12-04T08:43:44;118.37;;;53.63;;
22172;SDS011;11252;50.596;17.648;2022-12-04T08:46:13;114.17;;;54.77;;
22172;SDS011;11252;50.596;17.648;2022-12-04T08:48:42;144.17;;;68.33;;
22172;SDS011;11252;50.596;17.648;2022-12-04T08:51:12;153.23;;;80.87;;
22172;SDS011;11252;50.596;17.648;2022-12-04T08:53:41;105.83;;;51.90;;
22172;SDS011;11252;50.596;17.648;2022-12-04T08:56:10;135.13;;;73.93;;
22172;SDS011;11252;50.596;17.648;2022-12-04T08:58:37;122.30;;;63.47;;
22172;SDS011;11252;50.596;17.648;2022-12-04T09:01:05;110.50;;;58.10;;
22172;SDS011;11252;50.596;17.648;2022-12-04T09:03:35;96.67;;;49.43;;
22172;SDS011;11252;50.596;17.648;2022-12-04T09:06:06;101.83;;;50.20;;
22172;SDS011;11252;50.596;17.648;2022-12-04T09:08:34;104.03;;;55.03;;
22172;SDS011;11252;50.596;17.648;2022-12-04T09:11:04;98.03;;;51.17;;
22172;SDS011;11252;50.596;17.648;2022-12-04T09:13:34;107.30;;;59.93;;
22172;SDS011;11252;50.596;17.648;2022-12-04T09:16:03;91.90;;;46.47;;
22172;SDS011;11252;50.596;17.648;2022-12-04T09:18:33;88.83;;;46.27;;
22172;SDS011;11252;50.596;17.648;2022-12-04T09:21:03;84.37;;;43.97;;
22172;SDS011;11252;50.596;17.648;2022-12-04T09:23:33;86.30;;;44.70;;
22172;SDS011;11252;50.596;17.648;2022-12-04T09:26:01;92.47;;;59.50;;
22172;SDS011;11252;50.596;17.648;2022-12-04T09:28:30;82.37;;;45.43;;
22172;SDS011;11252;50.596;17.648;2022-12-04T09:30:58;69.60;;;40.57;;
22172;SDS011;11252;50.596;17.648;2022-12-04T09:33:28;73.20;;;39.83;;
22172;SDS011;11252;50.596;17.648;2022-12-04T09:36:00;78.20;;;45.57;;
22172;SDS011;11252;50.596;17.648;2022-12-04T09:38:29;79.40;;;44.63;;
22172;SDS011;11252;50.596;17.648;2022-12-04T09:43:31;70.23;;;40.50;;
22172;SDS011;11252;50.596;17.648;2022-12-04T09:46:08;71.23;;;42.10;;
22172;SDS011;11252;50.596;17.648;2022-12-04T09:48:40;71.27;;;40.00;;
22172;SDS011;11252;50.596;17.648;2022-12-04T09:51:09;71.57;;;40.30;;
22172;SDS011;11252;50.596;17.648;2022-12-04T09:53:45;74.63;;;41.80;;
22172;SDS011;11252;50.596;17.648;2022-12-04T09:56:15;69.57;;;43.57;;
22172;SDS011;11252;50.596;17.648;2022-12-04T10:04:38;63.63;;;38.50;;
22172;SDS011;11252;50.596;17.648;2022-12-04T10:07:09;58.37;;;37.00;;
22172;SDS011;11252;50.596;17.648;2022-12-04T10:09:56;67.30;;;43.83;;
22172;SDS011;11252;50.596;17.648;2022-12-04T10:20:52;79.33;;;43.80;;
22172;SDS011;11252;50.596;17.648;2022-12-04T10:23:58;87.97;;;47.67;;
22172;SDS011;11252;50.596;17.648;2022-12-04T10:26:38;92.60;;;48.50;;
22172;SDS011;11252;50.596;17.648;2022-12-04T10:29:21;86.47;;;46.40;;
22172;SDS011;11252;50.596;17.648;2022-12-04T10:31:52;100.53;;;52.13;;
22172;SDS011;11252;50.596;17.648;2022-12-04T10:34:24;93.13;;;47.23;;
22172;SDS011;11252;50.596;17.648;2022-12-04T10:36:58;80.70;;;45.27;;
22172;SDS011;11252;50.596;17.648;2022-12-04T10:39:34;102.70;;;52.67;;
22172;SDS011;11252;50.596;17.648;2022-12-04T10:42:26;86.00;;;47.13;;
22172;SDS011;11252;50.596;17.648;2022-12-04T10:45:04;100.47;;;52.10;;
22172;SDS011;11252;50.596;17.648;2022-12-04T10:47:32;81.20;;;42.73;;
22172;SDS011;11252;50.596;17.648;2022-12-04T10:50:02;102.17;;;53.27;;
22172;SDS011;11252;50.596;17.648;2022-12-04T10:52:39;108.60;;;56.63;;
22172;SDS011;11252;50.596;17.648;2022-12-04T10:55:07;111.63;;;59.93;;
22172;SDS011;11252;50.596;17.648;2022-12-04T10:57:37;101.37;;;53.10;;
22172;SDS011;11252;50.596;17.648;2022-12-04T11:02:58;91.63;;;46.77;;
22172;SDS011;11252;50.596;17.648;2022-12-04T11:05:30;86.67;;;48.07;;
22172;SDS011;11252;50.596;17.648;2022-12-04T11:08:02;93.03;;;50.40;;
22172;SDS011;11252;50.596;17.648;2022-12-04T11:10:36;102.87;;;55.93;;
22172;SDS011;11252;50.596;17.648;2022-12-04T11:15:44;86.63;;;47.03;;
22172;SDS011;11252;50.596;17.648;2022-12-04T11:18:26;83.27;;;46.00;;
22172;SDS011;11252;50.596;17.648;2022-12-04T11:23:52;103.10;;;57.00;;
22172;SDS011;11252;50.596;17.648;2022-12-04T11:26:33;99.90;;;55.27;;
22172;SDS011;11252;50.596;17.648;2022-12-04T11:29:03;89.37;;;50.40;;
22172;SDS011;11252;50.596;17.648;2022-12-04T11:31:33;95.30;;;53.67;;
22172;SDS011;11252;50.596;17.648;2022-12-04T11:34:01;97.73;;;54.03;;
22172;SDS011;11252;50.596;17.648;2022-12-04T11:36:34;100.17;;;56.97;;
22172;SDS011;11252;50.596;17.648;2022-12-04T11:41:38;77.77;;;44.67;;
22172;SDS011;11252;50.596;17.648;2022-12-04T11:44:18;126.93;;;69.17;;
22172;SDS011;11252;50.596;17.648;2022-12-04T11:46:51;87.70;;;52.47;;
22172;SDS011;11252;50.596;17.648;2022-12-04T11:49:21;97.73;;;57.80;;
22172;SDS011;11252;50.596;17.648;2022-12-04T11:54:33;64.40;;;41.03;;
22172;SDS011;11252;50.596;17.648;2022-12-04T11:57:38;65.07;;;38.03;;
22172;SDS011;11252;50.596;17.648;2022-12-04T12:00:49;67.93;;;40.00;;
22172;SDS011;11252;50.596;17.648;2022-12-04T12:03:43;70.73;;;42.43;;
22172;SDS011;11252;50.596;17.648;2022-12-04T12:06:30;66.50;;;39.70;;
22172;SDS011;11252;50.596;17.648;2022-12-04T12:09:22;67.53;;;40.77;;
22172;SDS011;11252;50.596;17.648;2022-12-04T12:17:58;71.03;;;41.73;;
22172;SDS011;11252;50.596;17.648;2022-12-04T12:24:26;70.07;;;41.77;;
22172;SDS011;11252;50.596;17.648;2022-12-04T12:32:44;75.53;;;45.17;;
22172;SDS011;11252;50.596;17.648;2022-12-04T12:35:27;78.93;;;48.77;;
22172;SDS011;11252;50.596;17.648;2022-12-04T12:38:10;77.60;;;47.57;;
22172;SDS011;11252;50.596;17.648;2022-12-04T12:40:43;108.77;;;59.60;;
22172;SDS011;11252;50.596;17.648;2022-12-04T12:43:20;85.20;;;54.67;;
22172;SDS011;11252;50.596;17.648;2022-12-04T12:51:01;85.17;;;56.07;;
22172;SDS011;11252;50.596;17.648;2022-12-04T12:53:57;84.87;;;51.13;;
22172;SDS011;11252;50.596;17.648;2022-12-04T12:56:38;82.90;;;51.53;;
22172;SDS011;11252;50.596;17.648;2022-12-04T12:59:16;62.97;;;40.23;;
22172;SDS011;11252;50.596;17.648;2022-12-04T13:01:50;76.93;;;48.23;;
22172;SDS011;11252;50.596;17.648;2022-12-04T13:04:31;67.23;;;42.47;;
22172;SDS011;11252;50.596;17.648;2022-12-04T13:10:23;71.77;;;43.03;;
22172;SDS011;11252;50.596;17.648;2022-12-04T13:12:51;80.13;;;49.67;;
22172;SDS011;11252;50.596;17.648;2022-12-04T13:15:25;74.03;;;44.27;;
22172;SDS011;11252;50.596;17.648;2022-12-04T13:18:04;76.20;;;48.57;;
22172;SDS011;11252;50.596;17.648;2022-12-04T13:20:37;86.37;;;49.87;;
22172;SDS011;11252;50.596;17.648;2022-12-04T13:31:35;121.67;;;63.07;;
22172;SDS011;11252;50.596;17.648;2022-12-04T13:34:24;136.20;;;67.13;;
22172;SDS011;11252;50.596;17.648;2022-12-04T13:42:40;119.80;;;63.17;;
22172;SDS011;11252;50.596;17.648;2022-12-04T13:45:19;148.07;;;74.87;;
22172;SDS011;11252;50.596;17.648;2022-12-04T13:47:58;106.03;;;60.90;;
22172;SDS011;11252;50.596;17.648;2022-12-04T13:50:33;96.60;;;56.17;;
22172;SDS011;11252;50.596;17.648;2022-12-04T13:53:02;105.10;;;62.57;;
22172;SDS011;11252;50.596;17.648;2022-12-04T13:58:02;124.47;;;77.57;;
22172;SDS011;11252;50.596;17.648;2022-12-04T14:00:37;168.40;;;93.80;;
22172;SDS011;11252;50.596;17.648;2022-12-04T14:05:51;207.83;;;105.17;;
22172;SDS011;11252;50.596;17.648;2022-12-04T14:08:23;220.87;;;114.40;;
22172;SDS011;11252;50.596;17.648;2022-12-04T14:13:55;177.60;;;100.27;;
22172;SDS011;11252;50.596;17.648;2022-12-04T14:16:35;187.57;;;100.77;;
22172;SDS011;11252;50.596;17.648;2022-12-04T14:19:07;153.00;;;84.73;;
22172;SDS011;11252;50.596;17.648;2022-12-04T14:21:50;178.63;;;102.40;;
22172;SDS011;11252;50.596;17.648;2022-12-04T14:24:28;149.27;;;89.50;;
22172;SDS011;11252;50.596;17.648;2022-12-04T14:30:00;164.97;;;88.00;;
22172;SDS011;11252;50.596;17.648;2022-12-04T14:32:30;185.23;;;107.90;;
22172;SDS011;11252;50.596;17.648;2022-12-04T14:35:01;170.10;;;94.17;;
22172;SDS011;11252;50.596;17.648;2022-12-04T14:37:30;174.13;;;98.77;;
22172;SDS011;11252;50.596;17.648;2022-12-04T14:40:03;162.73;;;91.93;;
22172;SDS011;11252;50.596;17.648;2022-12-04T14:42:35;133.17;;;74.90;;
22172;SDS011;11252;50.596;17.648;2022-12-04T14:45:14;123.33;;;71.53;;
22172;SDS011;11252;50.596;17.648;2022-12-04T14:53:55;123.57;;;75.90;;
22172;SDS011;11252;50.596;17.648;2022-12-04T14:56:46;148.50;;;83.70;;
22172;SDS011;11252;50.596;17.648;2022-12-04T14:59:48;128.23;;;77.67;;
22172;SDS011;11252;50.596;17.648;2022-12-04T15:02:31;131.63;;;79.80;;
22172;SDS011;11252;50.596;17.648;2022-12-04T15:05:08;126.27;;;72.20;;
22172;SDS011;11252;50.596;17.648;2022-12-04T15:07:48;142.33;;;82.13;;
22172;SDS011;11252;50.596;17.648;2022-12-04T15:10:27;138.70;;;78.20;;
22172;SDS011;11252;50.596;17.648;2022-12-04T15:13:28;146.20;;;81.53;;
22172;SDS011;11252;50.596;17.648;2022-12-04T15:16:06;170.47;;;92.77;;
22172;SDS011;11252;50.596;17.648;2022-12-04T15:18:39;187.93;;;100.97;;
22172;SDS011;11252;50.596;17.648;2022-12-04T15:21:07;223.27;;;112.03;;
22172;SDS011;11252;50.596;17.648;2022-12-04T15:23:39;174.23;;;97.33;;
22172;SDS011;11252;50.596;17.648;2022-12-04T15:26:15;225.83;;;118.17;;
22172;SDS011;11252;50.596;17.648;2022-12-04T15:28:47;226.67;;;113.93;;
22172;SDS011;11252;50.596;17.648;2022-12-04T15:31:20;228.37;;;121.80;;
22172;SDS011;11252;50.596;17.648;2022-12-04T15:33:56;276.13;;;135.30;;
22172;SDS011;11252;50.596;17.648;2022-12-04T15:36:48;247.33;;;117.07;;
22172;SDS011;11252;50.596;17.648;2022-12-04T15:39:22;181.87;;;86.67;;
22172;SDS011;11252;50.596;17.648;2022-12-04T15:42:02;172.87;;;83.53;;
22172;SDS011;11252;50.596;17.648;2022-12-04T15:47:20;178.87;;;86.83;;
22172;SDS011;11252;50.596;17.648;2022-12-04T15:49:50;173.40;;;84.00;;
22172;SDS011;11252;50.596;17.648;2022-12-04T15:52:19;180.10;;;99.10;;
22172;SDS011;11252;50.596;17.648;2022-12-04T15:54:51;189.30;;;98.20;;
22172;SDS011;11252;50.596;17.648;2022-12-04T15:57:35;234.70;;;138.67;;
22172;SDS011;11252;50.596;17.648;2022-12-04T16:00:17;209.70;;;106.07;;
22172;SDS011;11252;50.596;17.648;2022-12-04T16:02:54;203.23;;;93.90;;
22172;SDS011;11252;50.596;17.648;2022-12-04T16:07:56;189.07;;;88.70;;
22172;SDS011;11252;50.596;17.648;2022-12-04T16:10:26;188.97;;;87.17;;
22172;SDS011;11252;50.596;17.648;2022-12-04T16:12:57;224.57;;;108.20;;
22172;SDS011;11252;50.596;17.648;2022-12-04T16:15:36;201.83;;;97.20;;
22172;SDS011;11252;50.596;17.648;2022-12-04T16:18:06;200.17;;;94.47;;
22172;SDS011;11252;50.596;17.648;2022-12-04T16:20:39;195.80;;;93.03;;
22172;SDS011;11252;50.596;17.648;2022-12-04T16:23:08;186.97;;;90.07;;
22172;SDS011;11252;50.596;17.648;2022-12-04T16:25:35;189.37;;;91.67;;
22172;SDS011;11252;50.596;17.648;2022-12-04T16:28:03;204.43;;;106.23;;
22172;SDS011;11252;50.596;17.648;2022-12-04T16:30:31;197.17;;;95.80;;
22172;SDS011;11252;50.596;17.648;2022-12-04T16:33:00;203.70;;;96.87;;
22172;SDS011;11252;50.596;17.648;2022-12-04T16:35:28;200.27;;;99.80;;
22172;SDS011;11252;50.596;17.648;2022-12-04T16:37:57;192.30;;;90.47;;
22172;SDS011;11252;50.596;17.648;2022-12-04T16:40:24;186.50;;;90.13;;
22172;SDS011;11252;50.596;17.648;2022-12-04T16:42:51;185.20;;;94.80;;